Time;durP1;ratioP1;P1;durP2;ratioP2;P2;SDS_P1;SDS_P2;PMS_P1;PMS_P2;Temp;Humidity;BMP_temperature;BMP_pressure;BME280_temperature;BME280_humidity;BME280_pressure;Samples;Min_cycle;Max_cycle;Signal;HPM_P1;HPM_P2
2023/03/01 00:01:44;;;;;;;6.3;2.9;;;;;;;;;;;;;-71
2023/03/01 00:02:01;;;;;;;;;;;;;;;-0.49;86.6543;103397.4;;;;-71
2023/03/01 00:07:01;;;;;;;;;;;;;;;-0.58;86.73047;103396.1;;;;-70
2023/03/01 00:12:01;;;;;;;;;;;;;;;-0.61;86.9082;103393.2;;;;-71
2023/03/01 00:17:01;;;;;;;;;;;;;;;-0.66;86.92969;103392.8;;;;-72
2023/03/01 00:22:01;;;;;;;;;;;;;;;-0.7;86.95215;103385.9;;;;-71
2023/03/01 00:27:01;;;;;;;;;;;;;;;-0.75;86.74902;103387.8;;;;-72
2023/03/01 00:31:55;;;;;;;6.7;3;;;;;;;;;;;;;-72
2023/03/01 00:32:04;;;;;;;;;;;;;;;-0.8;86.78125;103385.1;;;;-72
2023/03/01 00:37:04;;;;;;;;;;;;;;;-0.86;86.77051;103381.9;;;;-72
2023/03/01 00:42:01;;;;;;;;;;;;;;;-0.89;86.86133;103377.6;;;;-72
2023/03/01 00:47:01;;;;;;;;;;;;;;;-0.95;86.65527;103374.9;;;;-71
2023/03/01 00:52:01;;;;;;;;;;;;;;;-1.03;86.8125;103374.3;;;;-71
2023/03/01 00:57:01;;;;;;;;;;;;;;;-1.06;86.93555;103371.8;;;;-71
2023/03/01 01:01:44;;;;;;;6.3;2.6;;;;;;;;;;;;;-71
2023/03/01 01:02:01;;;;;;;;;;;;;;;-1.1;86.86133;103381.7;;;;-72
2023/03/01 01:07:01;;;;;;;;;;;;;;;-1.15;86.83984;103376.3;;;;-71
2023/03/01 01:12:01;;;;;;;;;;;;;;;-1.19;86.85547;103377.6;;;;-72
2023/03/01 01:17:04;;;;;;;;;;;;;;;-1.25;86.87305;103367.5;;;;-72
2023/03/01 01:22:03;;;;;;;;;;;;;;;-1.28;86.82422;103363;;;;-71
2023/03/01 01:27:01;;;;;;;;;;;;;;;-1.32;86.83887;103353.5;;;;-72
2023/03/01 01:31:46;;;;;;;6.5;2.8;;;;;;;;;;;;;-72
2023/03/01 01:32:01;;;;;;;;;;;;;;;-1.38;86.83691;103341.9;;;;-71
2023/03/01 01:37:03;;;;;;;;;;;;;;;-1.41;86.91504;103334;;;;-73
2023/03/01 01:42:01;;;;;;;;;;;;;;;-1.45;86.85352;103336.6;;;;-72
2023/03/01 01:47:04;;;;;;;;;;;;;;;-1.44;86.61914;103333.3;;;;-71
2023/03/01 01:52:04;;;;;;;;;;;;;;;-1.52;86.74414;103329.1;;;;-72
2023/03/01 01:57:04;;;;;;;;;;;;;;;-1.58;86.65625;103328.4;;;;-71
2023/03/01 02:01:42;;;;;;;9.1;2.9;;;;;;;;;;;;;-70
2023/03/01 02:02:03;;;;;;;;;;;;;;;-1.62;86.66992;103319.4;;;;-71
2023/03/01 02:07:03;;;;;;;;;;;;;;;-1.62;86.64844;103323.9;;;;-74
2023/03/01 02:12:03;;;;;;;;;;;;;;;-1.65;86.70801;103324.8;;;;-71
2023/03/01 02:17:01;;;;;;;;;;;;;;;-1.71;86.75684;103318.5;;;;-72
2023/03/01 02:22:06;;;;;;;;;;;;;;;-1.74;86.48535;103314.9;;;;-72
2023/03/01 02:27:02;;;;;;;;;;;;;;;-1.77;86.57422;103304.6;;;;-71
2023/03/01 02:31:47;;;;;;;5.9;2.9;;;;;;;;;;;;;-72
2023/03/01 02:32:06;;;;;;;;;;;;;;;-1.8;86.6543;103303.9;;;;-73
2023/03/01 02:37:04;;;;;;;;;;;;;;;-1.8;86.71875;103307.5;;;;-72
2023/03/01 02:42:01;;;;;;;;;;;;;;;-1.85;86.69727;103297.7;;;;-72
2023/03/01 02:47:05;;;;;;;;;;;;;;;-1.86;86.75098;103283.9;;;;-71
2023/03/01 02:52:12;;;;;;;;;;;;;;;-1.89;86.64648;103290.8;;;;-71
2023/03/01 02:57:01;;;;;;;;;;;;;;;-1.89;86.67871;103290.8;;;;-71
2023/03/01 03:01:41;;;;;;;7.1;3;;;;;;;;;;;;;-71
2023/03/01 03:02:01;;;;;;;;;;;;;;;-1.91;86.50391;103290.5;;;;-72
2023/03/01 03:07:01;;;;;;;;;;;;;;;-1.96;86.73047;103286.4;;;;-73
2023/03/01 03:12:01;;;;;;;;;;;;;;;-2;86.60254;103279.3;;;;-72
2023/03/01 03:17:06;;;;;;;;;;;;;;;-2.03;86.5332;103274.6;;;;-72
2023/03/01 03:22:01;;;;;;;;;;;;;;;-2.05;86.46289;103268.3;;;;-71
2023/03/01 03:27:01;;;;;;;;;;;;;;;-2.09;86.37012;103262.7;;;;-72
2023/03/01 03:31:39;;;;;;;6.1;3.1;;;;;;;;;;;;;-72
2023/03/01 03:32:05;;;;;;;;;;;;;;;-2.11;86.33594;103259.7;;;;-71
2023/03/01 03:37:03;;;;;;;;;;;;;;;-2.18;86.47168;103242.2;;;;-74
2023/03/01 03:42:01;;;;;;;;;;;;;;;-2.23;86.35352;103240;;;;-72
2023/03/01 03:47:01;;;;;;;;;;;;;;;-2.27;86.45117;103241.9;;;;-73
2023/03/01 03:52:01;;;;;;;;;;;;;;;-2.31;86.27051;103244.1;;;;-72
2023/03/01 03:57:01;;;;;;;;;;;;;;;-2.33;86.44043;103241.8;;;;-72
2023/03/01 04:01:38;;;;;;;7.2;3.2;;;;;;;;;;;;;-72
2023/03/01 04:02:01;;;;;;;;;;;;;;;-2.37;86.58105;103242.1;;;;-72
2023/03/01 04:07:06;;;;;;;;;;;;;;;-2.46;86.5;103249.7;;;;-71
2023/03/01 04:12:01;;;;;;;;;;;;;;;-2.44;86.16016;103241.2;;;;-72
2023/03/01 04:17:01;;;;;;;;;;;;;;;-2.5;86.34082;103235.9;;;;-71
2023/03/01 04:22:07;;;;;;;;;;;;;;;-2.54;86.16211;103226.5;;;;-72
2023/03/01 04:27:01;;;;;;;;;;;;;;;-2.57;86.28516;103222.1;;;;-72
2023/03/01 04:31:37;;;;;;;5.9;2.7;;;;;;;;;;;;;-73
2023/03/01 04:32:02;;;;;;;;;;;;;;;-2.61;86.24121;103221.8;;;;-71
2023/03/01 04:37:01;;;;;;;;;;;;;;;-2.64;86.17383;103226.3;;;;-71
2023/03/01 04:42:03;;;;;;;;;;;;;;;-2.71;86.27637;103222.1;;;;-71
2023/03/01 04:47:01;;;;;;;;;;;;;;;-2.75;86.36523;103214.9;;;;-71
2023/03/01 04:52:01;;;;;;;;;;;;;;;-2.78;86.17578;103232;;;;-71
2023/03/01 04:57:01;;;;;;;;;;;;;;;-2.81;86.07422;103231.3;;;;-72
2023/03/01 05:01:36;;;;;;;7.3;2.9;;;;;;;;;;;;;-72
2023/03/01 05:02:01;;;;;;;;;;;;;;;-2.87;86.16992;103224.8;;;;-71
2023/03/01 05:07:05;;;;;;;;;;;;;;;-2.89;86.14355;103216.8;;;;-71
2023/03/01 05:12:01;;;;;;;;;;;;;;;-2.98;86.19922;103211.1;;;;-72
2023/03/01 05:17:03;;;;;;;;;;;;;;;-2.99;86.12305;103213.1;;;;-71
2023/03/01 05:22:07;;;;;;;;;;;;;;;-3;86.14258;103211.1;;;;-70
2023/03/01 05:27:01;;;;;;;;;;;;;;;-3.02;86.06348;103196;;;;-71
2023/03/01 05:31:35;;;;;;;5.1;2.5;;;;;;;;;;;;;-70
2023/03/01 05:32:02;;;;;;;;;;;;;;;-3.09;86.14551;103190.5;;;;-72
2023/03/01 05:37:01;;;;;;;;;;;;;;;-3.12;86.13965;103182.2;;;;-71
2023/03/01 05:42:02;;;;;;;;;;;;;;;-3.13;86.20215;103179.4;;;;-72
2023/03/01 05:47:01;;;;;;;;;;;;;;;-3.22;86.20508;103176;;;;-73
2023/03/01 05:52:01;;;;;;;;;;;;;;;-3.22;86.30078;103178.9;;;;-72
2023/03/01 05:57:01;;;;;;;;;;;;;;;-3.24;86.10547;103176.4;;;;-71
2023/03/01 06:01:34;;;;;;;6.2;2.8;;;;;;;;;;;;;-72
2023/03/01 06:02:01;;;;;;;;;;;;;;;-3.24;86.35156;103173.9;;;;-72
2023/03/01 06:07:01;;;;;;;;;;;;;;;-3.22;86.19434;103168.4;;;;-73
2023/03/01 06:12:01;;;;;;;;;;;;;;;-3.21;86.19629;103163.7;;;;-72
2023/03/01 06:17:01;;;;;;;;;;;;;;;-3.21;86.16406;103161.6;;;;-71
2023/03/01 06:22:01;;;;;;;;;;;;;;;-3.25;86.32813;103158.1;;;;-71
2023/03/01 06:27:02;;;;;;;;;;;;;;;-3.26;86.34766;103152.9;;;;-71
2023/03/01 06:31:33;;;;;;;6.3;2.8;;;;;;;;;;;;;-72
2023/03/01 06:32:01;;;;;;;;;;;;;;;-3.23;86.25488;103157.4;;;;-71
2023/03/01 06:37:05;;;;;;;;;;;;;;;-3.22;86.25879;103157.8;;;;-72
2023/03/01 06:42:01;;;;;;;;;;;;;;;-3.19;86.35156;103169.6;;;;-72
2023/03/01 06:47:01;;;;;;;;;;;;;;;-3.15;86.29297;103161.6;;;;-71
2023/03/01 06:52:03;;;;;;;;;;;;;;;-3.13;86.125;103159.8;;;;-71
2023/03/01 06:57:03;;;;;;;;;;;;;;;-3.17;86.33203;103165.2;;;;-72
2023/03/01 07:01:32;;;;;;;6.7;2.8;;;;;;;;;;;;;-72
2023/03/01 07:02:01;;;;;;;;;;;;;;;-3.13;86.27734;103167.1;;;;-70
2023/03/01 07:07:01;;;;;;;;;;;;;;;-3.04;86.09082;103173;;;;-70
2023/03/01 07:12:01;;;;;;;;;;;;;;;-2.99;86.04785;103169.4;;;;-72
2023/03/01 07:17:01;;;;;;;;;;;;;;;-2.83;85.8584;103183.4;;;;-72
2023/03/01 07:22:01;;;;;;;;;;;;;;;-2.74;86.11035;103187.5;;;;-72
2023/03/01 07:27:01;;;;;;;;;;;;;;;-2.63;85.89648;103191.8;;;;-71
2023/03/01 07:31:32;;;;;;;7.3;3.3;;;;;;;;;;;;;-72
2023/03/01 07:32:01;;;;;;;;;;;;;;;-2.53;86.05664;103191.1;;;;-71
2023/03/01 07:37:01;;;;;;;;;;;;;;;-2.42;85.96973;103196;;;;-71
2023/03/01 07:42:01;;;;;;;;;;;;;;;-2.29;86.2207;103194;;;;-72
2023/03/01 07:47:01;;;;;;;;;;;;;;;-2.1;85.98242;103192.3;;;;-71
2023/03/01 07:52:04;;;;;;;;;;;;;;;-1.96;86.06348;103193.3;;;;-71
2023/03/01 07:57:01;;;;;;;;;;;;;;;-1.78;85.89648;103186;;;;-72
2023/03/01 08:01:31;;;;;;;7.6;3.2;;;;;;;;;;;;;-72
2023/03/01 08:02:01;;;;;;;;;;;;;;;-1.6;85.95508;103181.5;;;;-73
2023/03/01 08:07:01;;;;;;;;;;;;;;;-1.42;86.45117;103186;;;;-72
2023/03/01 08:12:04;;;;;;;;;;;;;;;-1.21;86.27051;103187.1;;;;-72
2023/03/01 08:17:02;;;;;;;;;;;;;;;-0.88;86.65918;103181;;;;-72
2023/03/01 08:22:01;;;;;;;;;;;;;;;-0.4;85.29102;103181.9;;;;-72
2023/03/01 08:27:02;;;;;;;;;;;;;;;-0.15;83.12207;103178.8;;;;-72
2023/03/01 08:31:30;;;;;;;9.3;4.1;;;;;;;;;;;;;-73
2023/03/01 08:32:02;;;;;;;;;;;;;;;0.05;82.29785;103181.7;;;;-72
2023/03/01 08:37:01;;;;;;;;;;;;;;;0.28;82.18164;103176.1;;;;-72
2023/03/01 08:42:04;;;;;;;;;;;;;;;0.41;82.02051;103174.2;;;;-72
2023/03/01 08:47:02;;;;;;;;;;;;;;;0.53;81.73242;103172.7;;;;-72
2023/03/01 08:52:02;;;;;;;;;;;;;;;0.67;81.90039;103167.3;;;;-71
2023/03/01 08:57:03;;;;;;;;;;;;;;;0.8;81.51367;103160.6;;;;-72
2023/03/01 09:01:28;;;;;;;10;5;;;;;;;;;;;;;-71
2023/03/01 09:02:01;;;;;;;;;;;;;;;0.91;81.33984;103165.5;;;;-71
2023/03/01 09:07:01;;;;;;;;;;;;;;;1.03;81.47266;103163.8;;;;-71
2023/03/01 09:12:01;;;;;;;;;;;;;;;1.16;81.2998;103156.1;;;;-71
2023/03/01 09:17:02;;;;;;;;;;;;;;;1.34;81.13965;103156.9;;;;-71
2023/03/01 09:22:01;;;;;;;;;;;;;;;1.5;80.80273;103163.1;;;;-71
2023/03/01 09:27:01;;;;;;;;;;;;;;;1.71;81.05859;103154.8;;;;-71
2023/03/01 09:31:28;;;;;;;13.4;5.9;;;;;;;;;;;;;-72
2023/03/01 09:32:07;;;;;;;;;;;;;;;1.96;81.21387;103148.4;;;;-72
2023/03/01 09:37:02;;;;;;;;;;;;;;;2.41;81.27637;103146.3;;;;-71
2023/03/01 09:42:04;;;;;;;;;;;;;;;2.74;80.98145;103148;;;;-71
2023/03/01 09:47:03;;;;;;;;;;;;;;;3.33;80.44043;103142.9;;;;-72
2023/03/01 09:52:08;;;;;;;;;;;;;;;3.81;79.91895;103139.2;;;;-71
2023/03/01 09:57:08;;;;;;;;;;;;;;;4.26;77.97461;103132.1;;;;-71
2023/03/01 10:01:38;;;;;;;16.4;7.7;;;;;;;;;;;;;-72
2023/03/01 10:02:03;;;;;;;;;;;;;;;4.72;78.03711;103121;;;;-71
2023/03/01 10:07:08;;;;;;;;;;;;;;;5.02;77.31348;103117.5;;;;-70
2023/03/01 10:12:02;;;;;;;;;;;;;;;5.44;76.06543;103117.6;;;;-70
2023/03/01 10:17:02;;;;;;;;;;;;;;;5.78;75.54395;103115;;;;-71
2023/03/01 10:22:04;;;;;;;;;;;;;;;6.02;75.50879;103114;;;;-70
2023/03/01 10:27:05;;;;;;;;;;;;;;;6.4;74.1582;103116.2;;;;-71
2023/03/01 10:31:37;;;;;;;15.7;8;;;;;;;;;;;;;-72
2023/03/01 10:32:03;;;;;;;;;;;;;;;6.68;73.00879;103115.1;;;;-71
2023/03/01 10:37:04;;;;;;;;;;;;;;;7.03;72.67285;103099.1;;;;-69
2023/03/01 10:42:05;;;;;;;;;;;;;;;7.32;71.71973;103083.5;;;;-70
2023/03/01 10:47:16;;;;;;;;;;;;;;;7.41;71.46094;103077.9;;;;-72
2023/03/01 10:52:11;;;;;;;;;;;;;;;7.57;72.42285;103075.8;;;;-70
2023/03/01 10:57:02;;;;;;;;;;;;;;;7.8;71.75586;103068.6;;;;-71
2023/03/01 11:01:35;;;;;;;12.5;7.3;;;;;;;;;;;;;-70
2023/03/01 11:02:18;;;;;;;;;;;;;;;7.99;70.79297;103067.9;;;;-70
2023/03/01 11:07:05;;;;;;;;;;;;;;;8.1;70.4375;103063.1;;;;-69
2023/03/01 11:12:03;;;;;;;;;;;;;;;8.18;70.57227;103064.1;;;;-71
2023/03/01 11:17:08;;;;;;;;;;;;;;;8.3;72.12305;103057.5;;;;-71
2023/03/01 11:22:05;;;;;;;;;;;;;;;8.45;69.6748;103045.5;;;;-70
2023/03/01 11:27:03;;;;;;;;;;;;;;;8.49;69.68164;103038.4;;;;-69
2023/03/01 11:31:30;;;;;;;14.2;7.9;;;;;;;;;;;;;-70
2023/03/01 11:32:05;;;;;;;;;;;;;;;8.61;72.80566;103033.9;;;;-70
2023/03/01 11:37:03;;;;;;;;;;;;;;;8.76;71.43848;103030.7;;;;-70
2023/03/01 11:42:05;;;;;;;;;;;;;;;8.89;71.70215;103026.4;;;;-70
2023/03/01 11:47:12;;;;;;;;;;;;;;;8.93;71.66602;103021.7;;;;-70
2023/03/01 11:52:06;;;;;;;;;;;;;;;9.15;79.55371;103014.7;;;;-69
2023/03/01 11:57:05;;;;;;;;;;;;;;;9.14;72.12988;103001.4;;;;-69
2023/03/01 12:01:36;;;;;;;14.4;8.3;;;;;;;;;;;;;-71
2023/03/01 12:02:17;;;;;;;;;;;;;;;9.17;72.54297;103003.4;;;;-69
2023/03/01 12:07:04;;;;;;;;;;;;;;;9.35;72.30957;103003.3;;;;-71
2023/03/01 12:12:10;;;;;;;;;;;;;;;9.32;69.22949;102997.7;;;;-70
2023/03/01 12:17:06;;;;;;;;;;;;;;;9.39;70.45703;102997.4;;;;-70
2023/03/01 12:22:08;;;;;;;;;;;;;;;9.38;71.17676;102994.3;;;;-70
2023/03/01 12:27:10;;;;;;;;;;;;;;;9.4;71.46582;102990.2;;;;-71
2023/03/01 12:31:45;;;;;;;15.1;8.8;;;;;;;;;;;;;-70
2023/03/01 12:32:24;;;;;;;;;;;;;;;9.45;70.53516;102980.5;;;;-70
2023/03/01 12:37:07;;;;;;;;;;;;;;;9.47;70.68066;102981.8;;;;-70
2023/03/01 12:42:06;;;;;;;;;;;;;;;9.42;71.09375;102976.5;;;;-70
2023/03/01 12:47:10;;;;;;;;;;;;;;;9.4;74.25391;102972.8;;;;-70
2023/03/01 12:52:04;;;;;;;;;;;;;;;9.38;73.2666;102959.5;;;;-71
2023/03/01 12:57:03;;;;;;;;;;;;;;;9.51;79.88379;102943.7;;;;-70
2023/03/01 13:01:38;;;;;;;16.3;8.8;;;;;;;;;;;;;-71
2023/03/01 13:02:05;;;;;;;;;;;;;;;9.42;76.74316;102940.4;;;;-70
2023/03/01 13:07:15;;;;;;;;;;;;;;;9.5;74.5918;102946;;;;-69
2023/03/01 13:12:01;;;;;;;;;;;;;;;9.37;71.7832;102942.6;;;;-70
2023/03/01 13:17:01;;;;;;;;;;;;;;;9.51;81.08691;102938;;;;-70
2023/03/01 13:22:01;;;;;;;;;;;;;;;9.42;77.53711;102938.1;;;;-70
2023/03/01 13:27:12;;;;;;;;;;;;;;;9.44;74.54785;102928.8;;;;-70
2023/03/01 13:31:45;;;;;;;16.7;10.1;;;;;;;;;;;;;-70
2023/03/01 13:32:04;;;;;;;;;;;;;;;9.5;74.87891;102923.8;;;;-69
2023/03/01 13:37:11;;;;;;;;;;;;;;;9.5;72.51074;102927.3;;;;-70
2023/03/01 13:42:01;;;;;;;;;;;;;;;9.48;70.76074;102914.4;;;;-70
2023/03/01 13:47:02;;;;;;;;;;;;;;;9.44;71.7168;102910.1;;;;-71
2023/03/01 13:52:01;;;;;;;;;;;;;;;9.45;72.35938;102900.1;;;;-71
2023/03/01 13:57:03;;;;;;;;;;;;;;;9.51;73.20898;102888.7;;;;-70
2023/03/01 14:01:36;;;;;;;22.9;12.4;;;;;;;;;;;;;-71
2023/03/01 14:02:02;;;;;;;;;;;;;;;9.48;70.66016;102879.3;;;;-70
2023/03/01 14:07:12;;;;;;;;;;;;;;;9.45;71.17578;102872.5;;;;-69
2023/03/01 14:12:16;;;;;;;;;;;;;;;9.49;71.75684;102867.5;;;;-71
2023/03/01 14:17:07;;;;;;;;;;;;;;;9.5;71.51563;102871.7;;;;-71
2023/03/01 14:22:16;;;;;;;;;;;;;;;9.52;72.07324;102867.8;;;;-70
2023/03/01 14:27:05;;;;;;;;;;;;;;;9.53;70.94434;102860.2;;;;-70
2023/03/01 14:31:42;;;;;;;19.1;10.6;;;;;;;;;;;;;-70
2023/03/01 14:32:11;;;;;;;;;;;;;;;9.56;73.04102;102844.3;;;;-71
2023/03/01 14:37:11;;;;;;;;;;;;;;;9.51;71.30664;102837;;;;-71
2023/03/01 14:42:02;;;;;;;;;;;;;;;9.5;73.72949;102836.1;;;;-70
2023/03/01 14:47:02;;;;;;;;;;;;;;;9.44;71.2627;102820.1;;;;-70
2023/03/01 14:52:03;;;;;;;;;;;;;;;9.4;71.25684;102807;;;;-69
2023/03/01 14:57:03;;;;;;;;;;;;;;;9.39;71.35352;102811.4;;;;-70
2023/03/01 15:01:38;;;;;;;15.6;8.4;;;;;;;;;;;;;-70
2023/03/01 15:02:01;;;;;;;;;;;;;;;9.3;72.01367;102799.9;;;;-70
2023/03/01 15:07:04;;;;;;;;;;;;;;;9.23;73.79395;102796.9;;;;-70
2023/03/01 15:12:01;;;;;;;;;;;;;;;9.14;72.88281;102798.2;;;;-69
2023/03/01 15:17:01;;;;;;;;;;;;;;;9.07;72.42871;102796;;;;-70
2023/03/01 15:22:11;;;;;;;;;;;;;;;9.04;73.24219;102790.7;;;;-70
2023/03/01 15:27:06;;;;;;;;;;;;;;;8.92;72.80078;102794.9;;;;-70
2023/03/01 15:31:40;;;;;;;11.3;6.6;;;;;;;;;;;;;-71
2023/03/01 15:32:03;;;;;;;;;;;;;;;8.83;73.72559;102787.4;;;;-70
2023/03/01 15:37:02;;;;;;;;;;;;;;;8.75;73.87598;102784.3;;;;-70
2023/03/01 15:42:01;;;;;;;;;;;;;;;8.7;76.83594;102778.9;;;;-70
2023/03/01 15:47:01;;;;;;;;;;;;;;;8.65;72.82129;102772.2;;;;-70
2023/03/01 15:52:01;;;;;;;;;;;;;;;8.54;72.98145;102771.3;;;;-70
2023/03/01 15:57:01;;;;;;;;;;;;;;;8.47;72.39551;102771.8;;;;-69
2023/03/01 16:01:40;;;;;;;12.7;6.4;;;;;;;;;;;;;-70
2023/03/01 16:02:01;;;;;;;;;;;;;;;8.42;71.43652;102769.9;;;;-70
2023/03/01 16:07:01;;;;;;;;;;;;;;;8.33;70.80566;102762.8;;;;-70
2023/03/01 16:12:01;;;;;;;;;;;;;;;8.24;71.27637;102765.2;;;;-70
2023/03/01 16:17:01;;;;;;;;;;;;;;;8.16;71.6377;102762.7;;;;-70
2023/03/01 16:22:02;;;;;;;;;;;;;;;8.03;70.78809;102760.6;;;;-71
2023/03/01 16:27:01;;;;;;;;;;;;;;;7.83;71.84766;102758.4;;;;-71
2023/03/01 16:31:42;;;;;;;11;5.7;;;;;;;;;;;;;-71
2023/03/01 16:32:03;;;;;;;;;;;;;;;7.65;73.93457;102752.8;;;;-69
2023/03/01 16:37:01;;;;;;;;;;;;;;;7.48;75.21289;102751.8;;;;-70
2023/03/01 16:42:03;;;;;;;;;;;;;;;7.32;76.59375;102752.5;;;;-71
2023/03/01 16:47:01;;;;;;;;;;;;;;;7.13;76.72461;102752.6;;;;-72
2023/03/01 16:52:01;;;;;;;;;;;;;;;6.98;77.57715;102749.4;;;;-71
2023/03/01 16:57:01;;;;;;;;;;;;;;;6.83;78.21973;102742.9;;;;-70
2023/03/01 17:01:43;;;;;;;12.5;6.6;;;;;;;;;;;;;-70
2023/03/01 17:02:01;;;;;;;;;;;;;;;6.65;78.76953;102745.5;;;;-72
2023/03/01 17:07:01;;;;;;;;;;;;;;;6.51;78.99512;102747.3;;;;-70
2023/03/01 17:12:01;;;;;;;;;;;;;;;6.35;79.88574;102757.1;;;;-71
2023/03/01 17:17:01;;;;;;;;;;;;;;;6.18;81.12598;102755.9;;;;-71
2023/03/01 17:22:02;;;;;;;;;;;;;;;6.03;81.34961;102755.4;;;;-72
2023/03/01 17:27:01;;;;;;;;;;;;;;;5.86;82.00781;102756.6;;;;-71
2023/03/01 17:31:43;;;;;;;14.2;7.1;;;;;;;;;;;;;-71
2023/03/01 17:32:01;;;;;;;;;;;;;;;5.69;81.64648;102755.6;;;;-70
2023/03/01 17:37:01;;;;;;;;;;;;;;;5.52;82.19336;102753.8;;;;-70
2023/03/01 17:42:01;;;;;;;;;;;;;;;5.39;82.5498;102761;;;;-70
2023/03/01 17:47:01;;;;;;;;;;;;;;;5.2;82.48242;102761;;;;-71
2023/03/01 17:52:01;;;;;;;;;;;;;;;5.06;82.44336;102760.7;;;;-72
2023/03/01 17:57:01;;;;;;;;;;;;;;;4.89;82.55469;102752.5;;;;-71
2023/03/01 18:01:45;;;;;;;12.1;6.1;;;;;;;;;;;;;-71
2023/03/01 18:02:01;;;;;;;;;;;;;;;4.77;82.52051;102759.7;;;;-70
2023/03/01 18:07:01;;;;;;;;;;;;;;;4.66;82.78223;102767.2;;;;-71
2023/03/01 18:12:01;;;;;;;;;;;;;;;4.55;82.54492;102767.1;;;;-71
2023/03/01 18:17:03;;;;;;;;;;;;;;;4.47;82.40918;102766.2;;;;-71
2023/03/01 18:22:01;;;;;;;;;;;;;;;4.35;81.79785;102768.1;;;;-73
2023/03/01 18:27:03;;;;;;;;;;;;;;;4.27;82.27246;102776.4;;;;-73
2023/03/01 18:31:45;;;;;;;14.7;6.6;;;;;;;;;;;;;-71
2023/03/01 18:32:04;;;;;;;;;;;;;;;4.15;82.03223;102784.2;;;;-71
2023/03/01 18:37:13;;;;;;;;;;;;;;;4.09;82.07422;102787.9;;;;-71
2023/03/01 18:42:02;;;;;;;;;;;;;;;4.01;82.03711;102787.6;;;;-70
2023/03/01 18:52:01;;;;;;;;;;;;;;;3.78;82.30957;102784.5;;;;-70
2023/03/01 18:57:02;;;;;;;;;;;;;;;3.67;82.79102;102786;;;;-70
2023/03/01 19:01:45;;;;;;;13.8;6.7;;;;;;;;;;;;;-70
2023/03/01 19:02:03;;;;;;;;;;;;;;;3.56;82.72461;102790.9;;;;-71
2023/03/01 19:07:01;;;;;;;;;;;;;;;3.47;82.90332;102791.9;;;;-71
2023/03/01 19:12:02;;;;;;;;;;;;;;;3.41;82.92285;102791.6;;;;-70
2023/03/01 19:17:01;;;;;;;;;;;;;;;3.34;83.35645;102793.2;;;;-71
2023/03/01 19:22:01;;;;;;;;;;;;;;;3.27;83.26465;102795.8;;;;-72
2023/03/01 19:27:01;;;;;;;;;;;;;;;3.26;83.7627;102795.5;;;;-70
2023/03/01 19:31:45;;;;;;;14.5;6.7;;;;;;;;;;;;;-70
2023/03/01 19:32:02;;;;;;;;;;;;;;;3.2;83.42578;102802.9;;;;-71
2023/03/01 19:37:01;;;;;;;;;;;;;;;3.18;83.42285;102798.3;;;;-71
2023/03/01 19:42:04;;;;;;;;;;;;;;;3.06;83.62793;102798.1;;;;-71
2023/03/01 19:47:01;;;;;;;;;;;;;;;3.05;83.87598;102794.4;;;;-70
2023/03/01 19:52:01;;;;;;;;;;;;;;;3.01;83.62793;102785.5;;;;-73
2023/03/01 19:57:01;;;;;;;;;;;;;;;2.95;83.95605;102783.5;;;;-71
2023/03/01 20:01:45;;;;;;;15.4;6.7;;;;;;;;;;;;;-71
2023/03/01 20:02:02;;;;;;;;;;;;;;;2.94;83.8877;102779.3;;;;-72
2023/03/01 20:07:01;;;;;;;;;;;;;;;2.88;84.00488;102780.9;;;;-72
2023/03/01 20:12:01;;;;;;;;;;;;;;;2.86;84.34863;102782.3;;;;-70
2023/03/01 20:17:01;;;;;;;;;;;;;;;2.84;84.22559;102777.7;;;;-70
2023/03/01 20:22:02;;;;;;;;;;;;;;;2.77;84.25293;102773.5;;;;-71
2023/03/01 20:27:01;;;;;;;;;;;;;;;2.75;84.34863;102771;;;;-72
2023/03/01 20:31:45;;;;;;;15.3;6.7;;;;;;;;;;;;;-72
2023/03/01 20:32:03;;;;;;;;;;;;;;;2.71;84.38379;102770.2;;;;-71
2023/03/01 20:37:03;;;;;;;;;;;;;;;2.7;84.51367;102768.8;;;;-72
2023/03/01 20:42:01;;;;;;;;;;;;;;;2.67;84.61719;102773.2;;;;-71
2023/03/01 20:47:04;;;;;;;;;;;;;;;2.67;84.59375;102784.3;;;;-70
2023/03/01 20:52:01;;;;;;;;;;;;;;;2.62;84.85547;102780.6;;;;-73
2023/03/01 20:57:01;;;;;;;;;;;;;;;2.62;84.9209;102785.5;;;;-71
2023/03/01 21:01:45;;;;;;;16.9;7.4;;;;;;;;;;;;;-73
2023/03/01 21:02:01;;;;;;;;;;;;;;;2.59;84.91309;102783.6;;;;-71
2023/03/01 21:07:01;;;;;;;;;;;;;;;2.56;85.11426;102781.9;;;;-71
2023/03/01 21:12:03;;;;;;;;;;;;;;;2.54;85.08887;102787;;;;-71
2023/03/01 21:17:01;;;;;;;;;;;;;;;2.51;85.07129;102796.3;;;;-71
2023/03/01 21:22:01;;;;;;;;;;;;;;;2.44;85.26465;102805.1;;;;-71
2023/03/01 21:27:05;;;;;;;;;;;;;;;2.4;85.125;102812.7;;;;-72
2023/03/01 21:31:45;;;;;;;16.8;7.9;;;;;;;;;;;;;-69
2023/03/01 21:32:01;;;;;;;;;;;;;;;2.36;85.3457;102821.1;;;;-70
2023/03/01 21:37:01;;;;;;;;;;;;;;;2.32;85.34961;102820.6;;;;-72
2023/03/01 21:42:02;;;;;;;;;;;;;;;2.27;85.50098;102825;;;;-71
2023/03/01 21:47:01;;;;;;;;;;;;;;;2.21;85.56445;102824.2;;;;-72
2023/03/01 21:52:01;;;;;;;;;;;;;;;2.19;85.77734;102827;;;;-72
2023/03/01 21:57:01;;;;;;;;;;;;;;;2.15;85.93164;102818.8;;;;-71
2023/03/01 22:01:48;;;;;;;19.5;8.7;;;;;;;;;;;;;-72
2023/03/01 22:02:13;;;;;;;;;;;;;;;2.12;86.13281;102817.6;;;;-71
2023/03/01 22:07:02;;;;;;;;;;;;;;;2.12;86.31641;102824.4;;;;-70
2023/03/01 22:12:09;;;;;;;;;;;;;;;2.13;86.12305;102830.6;;;;-70
2023/03/01 22:17:01;;;;;;;;;;;;;;;2.1;86.47363;102826.4;;;;-70
2023/03/01 22:22:04;;;;;;;;;;;;;;;2.09;86.92676;102825.8;;;;-71
2023/03/01 22:27:01;;;;;;;;;;;;;;;2.06;86.65039;102817.5;;;;-71
2023/03/01 22:31:45;;;;;;;21.9;9.3;;;;;;;;;;;;;-71
2023/03/01 22:32:01;;;;;;;;;;;;;;;2.06;86.75879;102818.1;;;;-71
2023/03/01 22:37:04;;;;;;;;;;;;;;;2.05;86.85352;102813.3;;;;-71
2023/03/01 22:42:02;;;;;;;;;;;;;;;2.02;86.96777;102817.3;;;;-71
2023/03/01 22:47:01;;;;;;;;;;;;;;;2.02;87.08691;102820;;;;-71
2023/03/01 22:52:01;;;;;;;;;;;;;;;1.99;87.01465;102823;;;;-71
2023/03/01 22:57:01;;;;;;;;;;;;;;;1.98;87.57715;102825.5;;;;-71
2023/03/01 23:01:45;;;;;;;21.3;9.6;;;;;;;;;;;;;-71
2023/03/01 23:02:01;;;;;;;;;;;;;;;1.98;87.56445;102823.4;;;;-71
2023/03/01 23:07:01;;;;;;;;;;;;;;;1.96;87.40918;102816.9;;;;-71
2023/03/01 23:12:06;;;;;;;;;;;;;;;1.97;87.21777;102819.1;;;;-71
2023/03/01 23:17:01;;;;;;;;;;;;;;;1.97;87.39844;102812.9;;;;-70
2023/03/01 23:22:03;;;;;;;;;;;;;;;1.94;87.55469;102813.5;;;;-72
2023/03/01 23:27:02;;;;;;;;;;;;;;;1.96;87.29004;102819.7;;;;-71
2023/03/01 23:31:45;;;;;;;22.6;10.1;;;;;;;;;;;;;-71
2023/03/01 23:32:02;;;;;;;;;;;;;;;1.97;87.5752;102819.9;;;;-71
2023/03/01 23:37:02;;;;;;;;;;;;;;;2.03;87.62988;102821.2;;;;-72
2023/03/01 23:42:02;;;;;;;;;;;;;;;2.03;88.11719;102808.8;;;;-71
2023/03/01 23:47:02;;;;;;;;;;;;;;;2.07;88.13477;102802;;;;-71
2023/03/01 23:52:01;;;;;;;;;;;;;;;2.06;88.62012;102792.1;;;;-74
2023/03/01 23:57:01;;;;;;;;;;;;;;;2.1;88.18555;102790.6;;;;-72
